Marseliborg — A8VR8 — position and weather

sailwx.info

Track history (hours):
 
Tides and Currents Weather Stations Pressure Air Temp Water Temp Dewpoint Dewpoint Depression Visibility Wind Speed Wind Dir Waves Ship Positions

Marseliborg

Last reported at 2016-Jun-25 23:12 UTC. Time now 2016-Jun-26 08:26 UTC.
Position N 46°12' W 072°51'.

Length 138 m; draft 6.5 m.

Type: Ship. MMSI: 636092036.

Date/timePositionNaut miles runAvg speedWind from/ knotsBaromVisibWave heightAir tempDewpointWater temp
2016-Jun-25 23:12N 46°12' W 072°51'914.4
2016-Jun-25 22:33N 46°05' W 072°60'1312.6
2016-Jun-25 21:33N 45°57' W 073°13'1413.8
2016-Jun-25 20:33N 45°45' W 073°24'1211.7
2016-Jun-25 19:30N 45°34' W 073°31'1 0.5
2016-Jun-25 17:27N 45°35' W 073°30'0 0.0
2016-Jun-25 15:12N 45°35' W 073°30'0 0.0
2016-Jun-25 14:21N 45°35' W 073°30'0 0.0
2016-Jun-25 13:33N 45°35' W 073°30'0 0.0
2016-Jun-25 12:33N 45°35' W 073°30'0 0.0
2016-Jun-25 11:33N 45°35' W 073°30'0 0.0
2016-Jun-25 10:33N 45°35' W 073°30'0 0.0
2016-Jun-25 09:33N 45°35' W 073°30'0 0.0
2016-Jun-25 08:33N 45°35' W 073°30'0 0.0
2016-Jun-25 07:30N 45°35' W 073°30'0 0.0
2016-Jun-25 06:33N 45°35' W 073°30'2 2.5
2016-Jun-25 05:33N 45°32' W 073°32'3 3.1
2016-Jun-25 04:33N 45°29' W 073°31'5 5.2
2016-Jun-25 03:33N 45°24' W 073°33'3 2.8
2016-Jun-25 02:26N 45°24' W 073°38'8 8.8
2016-Jun-25 01:33N 45°23' W 073°49'6 6.3
2016-Jun-25 00:32N 45°18' W 073°55'4 3.8
2016-Jun-24 23:33N 45°15' W 073°58'111 8.3
2016-Jun-24 10:17N 44°14' W 076°08'913.0
2016-Jun-24 09:33N 44°10' W 076°19'1813.2
2016-Jun-24 08:12N 43°55' W 076°34'150 6.6
2016-Jun-23 09:33N 42°40' W 079°32'1111.0
2016-Jun-23 08:33N 42°34' W 079°44'1410.9
2016-Jun-23 07:17N 42°26' W 079°60'  
2016-Jun-19 09:29N 45°54' W 083°51'1310.3
2016-Jun-19 08:15N 46°04' W 084°01'16 9.1
2016-Jun-19 06:33N 46°18' W 084°13'15 3.8
2016-Jun-19 02:31N 46°27' W 084°31'1212.3
2016-Jun-19 01:34N 46°35' W 084°43'27314.1
2016-Jun-18 06:09N 47°02' W 091°21'1014.6
2016-Jun-18 05:26N 46°58' W 091°34'1314.7
2016-Jun-18 04:33N 46°52' W 091°51'1211.8
2016-Jun-18 03:33N 46°46' W 092°06'1 0.7
2016-Jun-18 02:32N 46°46' W 092°06'0 0.0
2016-Jun-18 01:23N 46°46' W 092°06'0 0.0
2016-Jun-18 00:26N 46°46' W 092°06'0 0.2
2016-Jun-17 23:22N 46°45' W 092°06'0 0.0
2016-Jun-17 22:25N 46°45' W 092°06'0 0.0
2016-Jun-17 21:25N 46°45' W 092°06'0 0.0
2016-Jun-17 20:25N 46°45' W 092°06'0 0.0
2016-Jun-17 19:25N 46°45' W 092°06'0 0.0
2016-Jun-17 18:28N 46°45' W 092°06'0 0.0
2016-Jun-17 17:31N 46°45' W 092°06'0 0.0
2016-Jun-17 16:31N 46°45' W 092°06'0 0.0
2016-Jun-17 15:31N 46°45' W 092°06'0 0.0
2016-Jun-17 14:28N 46°45' W 092°06'0 0.0
2016-Jun-17 13:31N 46°45' W 092°06'0 0.0
2016-Jun-17 12:04N 46°45' W 092°06'0 0.0
2016-Jun-17 11:31N 46°45' W 092°06'0 0.0
2016-Jun-17 10:31N 46°45' W 092°06'0 0.0
2016-Jun-17 09:22N 46°45' W 092°06'0 0.0
2016-Jun-17 08:25N 46°45' W 092°06'0 0.0
2016-Jun-17 07:25N 46°45' W 092°06'0 0.0
2016-Jun-17 06:25N 46°45' W 092°06'0 0.0
2016-Jun-17 05:28N 46°45' W 092°06'0 0.0
2016-Jun-17 04:28N 46°45' W 092°06'0 0.0
2016-Jun-17 03:28N 46°45' W 092°06'0 0.0
2016-Jun-17 02:31N 46°45' W 092°06'0 0.0
2016-Jun-17 01:31N 46°45' W 092°06'0 0.0
2016-Jun-17 00:31N 46°45' W 092°06'0 0.0
2016-Jun-16 23:31N 46°45' W 092°06'0 0.0
2016-Jun-16 22:31N 46°45' W 092°06'0 0.0
2016-Jun-16 21:31N 46°45' W 092°06'0 0.0
2016-Jun-16 20:31N 46°45' W 092°06'0 0.0
2016-Jun-16 19:22N 46°45' W 092°06'0 0.0
2016-Jun-16 18:25N 46°45' W 092°06'0 0.0
2016-Jun-16 17:25N 46°45' W 092°06'0 0.0
2016-Jun-16 16:25N 46°45' W 092°06'0 0.0
2016-Jun-16 15:28N 46°45' W 092°06'0 0.0
2016-Jun-16 14:28N 46°45' W 092°06'0 0.0
2016-Jun-16 13:28N 46°45' W 092°06'0 0.4
2016-Jun-16 12:33N 46°45' W 092°05'7 6.7
2016-Jun-16 11:33N 46°49' W 091°57'  
Track history (hours):
 
Tides and Currents Weather Stations Pressure Air Temp Water Temp Dewpoint Dewpoint Depression Visibility Wind Speed Wind Dir Waves Ship Positions

Marseliborg

Last reported at 2016-Jun-25 23:12 UTC. Time now 2016-Jun-26 08:26 UTC.
Position N 46°12' W 072°51'.

Length 138 m; draft 6.5 m.

Type: Ship. MMSI: 636092036.

Date/timePositionNaut miles runAvg speedWind from/ knotsBaromVisibWave heightAir tempDewpointWater temp
2016-Jun-25 23:12N 46°12' W 072°51'914.4
2016-Jun-25 22:33N 46°05' W 072°60'1312.6
2016-Jun-25 21:33N 45°57' W 073°13'1413.8
2016-Jun-25 20:33N 45°45' W 073°24'1211.7
2016-Jun-25 19:30N 45°34' W 073°31'1 0.5
2016-Jun-25 17:27N 45°35' W 073°30'0 0.0
2016-Jun-25 15:12N 45°35' W 073°30'0 0.0
2016-Jun-25 14:21N 45°35' W 073°30'0 0.0
2016-Jun-25 13:33N 45°35' W 073°30'0 0.0
2016-Jun-25 12:33N 45°35' W 073°30'0 0.0
2016-Jun-25 11:33N 45°35' W 073°30'0 0.0
2016-Jun-25 10:33N 45°35' W 073°30'0 0.0
2016-Jun-25 09:33N 45°35' W 073°30'0 0.0
2016-Jun-25 08:33N 45°35' W 073°30'0 0.0
2016-Jun-25 07:30N 45°35' W 073°30'0 0.0
2016-Jun-25 06:33N 45°35' W 073°30'2 2.5
2016-Jun-25 05:33N 45°32' W 073°32'3 3.1
2016-Jun-25 04:33N 45°29' W 073°31'5 5.2
2016-Jun-25 03:33N 45°24' W 073°33'3 2.8
2016-Jun-25 02:26N 45°24' W 073°38'8 8.8
2016-Jun-25 01:33N 45°23' W 073°49'6 6.3
2016-Jun-25 00:32N 45°18' W 073°55'4 3.8
2016-Jun-24 23:33N 45°15' W 073°58'111 8.3
2016-Jun-24 10:17N 44°14' W 076°08'913.0
2016-Jun-24 09:33N 44°10' W 076°19'1813.2
2016-Jun-24 08:12N 43°55' W 076°34'150 6.6
2016-Jun-23 09:33N 42°40' W 079°32'1111.0
2016-Jun-23 08:33N 42°34' W 079°44'1410.9
2016-Jun-23 07:17N 42°26' W 079°60'  
2016-Jun-19 09:29N 45°54' W 083°51'1310.3
2016-Jun-19 08:15N 46°04' W 084°01'16 9.1
2016-Jun-19 06:33N 46°18' W 084°13'15 3.8
2016-Jun-19 02:31N 46°27' W 084°31'1212.3
2016-Jun-19 01:34N 46°35' W 084°43'27314.1
2016-Jun-18 06:09N 47°02' W 091°21'1014.6
2016-Jun-18 05:26N 46°58' W 091°34'1314.7
2016-Jun-18 04:33N 46°52' W 091°51'1211.8
2016-Jun-18 03:33N 46°46' W 092°06'1 0.7
2016-Jun-18 02:32N 46°46' W 092°06'0 0.0
2016-Jun-18 01:23N 46°46' W 092°06'0 0.0
2016-Jun-18 00:26N 46°46' W 092°06'0 0.2
2016-Jun-17 23:22N 46°45' W 092°06'0 0.0
2016-Jun-17 22:25N 46°45' W 092°06'0 0.0
2016-Jun-17 21:25N 46°45' W 092°06'0 0.0
2016-Jun-17 20:25N 46°45' W 092°06'0 0.0
2016-Jun-17 19:25N 46°45' W 092°06'0 0.0
2016-Jun-17 18:28N 46°45' W 092°06'0 0.0
2016-Jun-17 17:31N 46°45' W 092°06'0 0.0
2016-Jun-17 16:31N 46°45' W 092°06'0 0.0
2016-Jun-17 15:31N 46°45' W 092°06'0 0.0
2016-Jun-17 14:28N 46°45' W 092°06'0 0.0
2016-Jun-17 13:31N 46°45' W 092°06'0 0.0
2016-Jun-17 12:04N 46°45' W 092°06'0 0.0
2016-Jun-17 11:31N 46°45' W 092°06'0 0.0
2016-Jun-17 10:31N 46°45' W 092°06'0 0.0
2016-Jun-17 09:22N 46°45' W 092°06'0 0.0
2016-Jun-17 08:25N 46°45' W 092°06'0 0.0
2016-Jun-17 07:25N 46°45' W 092°06'0 0.0
2016-Jun-17 06:25N 46°45' W 092°06'0 0.0
2016-Jun-17 05:28N 46°45' W 092°06'0 0.0
2016-Jun-17 04:28N 46°45' W 092°06'0 0.0
2016-Jun-17 03:28N 46°45' W 092°06'0 0.0
2016-Jun-17 02:31N 46°45' W 092°06'0 0.0
2016-Jun-17 01:31N 46°45' W 092°06'0 0.0
2016-Jun-17 00:31N 46°45' W 092°06'0 0.0
2016-Jun-16 23:31N 46°45' W 092°06'0 0.0
2016-Jun-16 22:31N 46°45' W 092°06'0 0.0
2016-Jun-16 21:31N 46°45' W 092°06'0 0.0
2016-Jun-16 20:31N 46°45' W 092°06'0 0.0
2016-Jun-16 19:22N 46°45' W 092°06'0 0.0
2016-Jun-16 18:25N 46°45' W 092°06'0 0.0
2016-Jun-16 17:25N 46°45' W 092°06'0 0.0
2016-Jun-16 16:25N 46°45' W 092°06'0 0.0
2016-Jun-16 15:28N 46°45' W 092°06'0 0.0
2016-Jun-16 14:28N 46°45' W 092°06'0 0.0
2016-Jun-16 13:28N 46°45' W 092°06'0 0.4
2016-Jun-16 12:33N 46°45' W 092°05'7 6.7
2016-Jun-16 11:33N 46°49' W 091°57'  

Dump ship's entire track history